PAWDPATK

Guest
Details From PAWD - SEWARD
To PATK - TALKEETNA
Flight Number -
Tags generated
Created
Modified
Stats Distance 133 nm / 246 km
Max Altitude 16,000 ft / 4,877 m
Waypoints 3
Social Downloads 1
Likes 0
Share VATSIM

Download

Looking for another format? Having issues loading an existing format? Contact us
Advertisement - Login to hide

Notes

Basic altitude profile: - Ascent Rate: 2500ft/min - Ascent Speed: 250kts - Cruise Altitude: 35000ft - Cruise Speed: 420kts - Descent Rate: 1500ft/min - Descent Speed: 250kts Options: - Use NATs: yes - Use PACOTS: yes - Use low airways: yes - Use high airways: yes

Route

PAWD HOPER PATK

ID Type Via Altitude Latitude Longitude Leg Dist Tot Dist Heading (true) Name
O PAWD APT - 0 ft / 0 m 60.12984˚ -149.41952˚ - 0 nm - SEWARD
HOPER FIX - 16,000 ft / 4,877 m 61.00281˚ -149.73961˚ 53 nm 53 nm 350° / 350° -
O PATK APT - 0 ft / 0 m 62.32051˚ -150.09369˚ 79 nm 133 nm 353° / 353° TALKEETNA

Altitude Profile

Advertisement - Login to hide

PAWD

Details ICAO PAWD
Name SEWARD
Region USA (Alaska)
Timezone America/Anchorage (UTC-9.0)
Stats Elevation 22 ft / 7 m (AMSL)
Location 60.129844° -149.419515°
Runways 2
Magnetic Variation 16.259° E

METAR

PAWD 141253Z AUTO 03014KT 10SM CLR 02/01 A2956 RMK AO2 SLP009 T00170006 TSNO

Decode

TAF

Not found

Departure Runways

ID Width Length Bearing (true) Bearing (mag) Surface Threshold Offset Overrun Length
12 100 ft / 30 m 4,228 ft / 1,289 m 143.67° 127.41° Asphalt 0 ft / 0 m 0 ft / 0 m
15 75 ft / 23 m 2,280 ft / 695 m 170.13° 153.87° Asphalt 0 ft / 0 m 0 ft / 0 m
30 100 ft / 30 m 4,228 ft / 1,289 m 323.68° 307.42° Asphalt 0 ft / 0 m 0 ft / 0 m
33 75 ft / 23 m 2,280 ft / 695 m 350.13° 333.87° Asphalt 0 ft / 0 m 0 ft / 0 m

PATK

Details ICAO PATK (TKA)
Name TALKEETNA
Region USA (Alaska)
Timezone America/Anchorage (UTC-9.0)
Stats Elevation 358 ft / 109 m (AMSL)
Location 62.320512° -150.093685°
Runways 1
Magnetic Variation 16.356° E

METAR

PATK 141253Z AUTO 00000KT 10SM CLR M06/M07 A2963 RMK AO2 SLP041 T10561072 TSNO $

Decode

TAF

PATK 141148Z 1412/1512 02004KT P6SM SCT060 FM150400 VRB03KT P6SM VCSH SCT035 OVC060

Decode

Destination Runways

ID Width Length Bearing (true) Bearing (mag) Surface Threshold Offset Overrun Length
18 75 ft / 23 m 3,503 ft / 1,068 m 207.01° 190.65° Asphalt 0 ft / 0 m 0 ft / 0 m
36 75 ft / 23 m 3,503 ft / 1,068 m 27.01° 10.65° Asphalt 0 ft / 0 m 0 ft / 0 m

Popular Alternatives